Time;durP1;ratioP1;P1;durP2;ratioP2;P2;SDS_P1;SDS_P2;PMS_P1;PMS_P2;Temp;Humidity;BMP_temperature;BMP_pressure;BME280_temperature;BME280_humidity;BME280_pressure;Samples;Min_cycle;Max_cycle;Signal;HPM_P1;HPM_P2
2024/04/01 00:01:46;;;;;;;34.65;17.50;;;14.70;99.40;;;;;;5052253;28;20060;-66
2024/04/01 00:04:32;;;;;;;29.30;18.73;;;14.70;99.50;;;;;;5037979;28;20584;-66
2024/04/01 00:07:18;;;;;;;30.25;16.40;;;14.60;99.60;;;;;;5049873;28;20471;-66
2024/04/01 00:10:05;;;;;;;33.50;16.88;;;14.50;99.70;;;;;;5052528;28;20405;-65
2024/04/01 00:12:53;;;;;;;30.58;16.35;;;14.50;99.80;;;;;;5045815;28;20091;-65
2024/04/01 00:15:39;;;;;;;29.60;16.17;;;14.50;99.90;;;;;;5046539;28;20388;-66
2024/04/01 00:18:25;;;;;;;33.40;16.17;;;14.40;99.90;;;;;;5050895;28;20175;-65
2024/04/01 00:21:11;;;;;;;33.15;16.20;;;14.40;99.90;;;;;;5042226;28;20033;-66
2024/04/01 00:23:57;;;;;;;34.50;15.75;;;14.40;99.90;;;;;;5032004;28;20047;-66
2024/04/01 00:26:43;;;;;;;37.58;17.52;;;14.30;99.90;;;;;;5036594;28;20048;-67
2024/04/01 00:29:29;;;;;;;27.85;16.88;;;14.40;99.90;;;;;;5051299;28;20049;-66
2024/04/01 00:32:16;;;;;;;28.77;15.60;;;14.30;99.90;;;;;;5051464;28;20063;-66
2024/04/01 00:35:02;;;;;;;26.88;16.13;;;14.30;99.90;;;;;;5043248;28;20041;-66
2024/04/01 00:37:48;;;;;;;30.80;16.60;;;14.30;99.90;;;;;;5045824;28;20068;-66
2024/04/01 00:40:35;;;;;;;36.60;15.80;;;14.20;99.90;;;;;;5048585;28;20045;-71
2024/04/01 00:43:21;;;;;;;26.45;14.63;;;14.20;99.90;;;;;;5050468;28;20059;-71
2024/04/01 00:46:07;;;;;;;30.25;14.82;;;14.10;99.90;;;;;;5050203;28;20037;-71
2024/04/01 00:48:53;;;;;;;31.98;16.10;;;14.10;99.90;;;;;;5041513;28;20040;-71
2024/04/01 00:51:40;;;;;;;30.75;15.93;;;14.10;99.90;;;;;;5048794;28;20045;-71
2024/04/01 00:54:27;;;;;;;28.83;16.20;;;14.00;99.90;;;;;;5042419;28;20088;-71
2024/04/01 00:57:14;;;;;;;30.13;16.10;;;14.00;99.90;;;;;;5042541;28;20394;-71
2024/04/01 01:00:01;;;;;;;35.33;16.65;;;13.90;99.90;;;;;;5051961;28;20497;-71
2024/04/01 01:02:47;;;;;;;27.20;15.73;;;13.90;99.90;;;;;;5050624;28;20416;-71
2024/04/01 01:05:35;;;;;;;27.10;15.15;;;13.90;99.90;;;;;;5046827;28;20037;-71
2024/04/01 01:08:21;;;;;;;36.40;16.95;;;13.80;99.90;;;;;;5045835;28;20131;-69
2024/04/01 01:11:07;;;;;;;34.38;14.88;;;13.80;99.90;;;;;;5044944;28;20044;-70
2024/04/01 01:13:53;;;;;;;26.70;15.40;;;13.80;99.90;;;;;;5034269;28;20440;-70
2024/04/01 01:16:39;;;;;;;34.53;15.77;;;13.70;99.90;;;;;;5045788;28;20087;-74
2024/04/01 01:19:27;;;;;;;29.23;14.57;;;13.70;99.90;;;;;;5047901;28;20080;-73
2024/04/01 01:22:17;;;;;;;27.70;15.95;;;13.70;99.90;;;;;;5048943;28;20398;-74
2024/04/01 01:25:07;;;;;;;39.88;16.52;;;13.70;99.90;;;;;;5047657;28;20477;-73
2024/04/01 01:27:53;;;;;;;31.13;15.50;;;13.60;99.90;;;;;;5030485;28;20049;-74
2024/04/01 01:30:38;;;;;;;25.48;15.52;;;13.70;99.90;;;;;;5052115;28;20040;-74
2024/04/01 01:33:24;;;;;;;23.52;14.15;;;13.70;99.90;;;;;;5048743;28;20079;-74
2024/04/01 01:36:11;;;;;;;25.48;15.25;;;13.60;99.90;;;;;;5048709;28;20045;-74
2024/04/01 01:38:57;;;;;;;28.60;14.20;;;13.60;99.90;;;;;;5040876;28;20107;-69
2024/04/01 01:41:43;;;;;;;28.90;14.35;;;13.60;99.90;;;;;;5048186;28;20052;-71
2024/04/01 01:44:29;;;;;;;22.85;13.48;;;13.50;99.90;;;;;;5036778;28;20045;-71
2024/04/01 01:47:15;;;;;;;23.65;14.52;;;13.50;99.90;;;;;;5044090;28;20068;-71
2024/04/01 01:50:03;;;;;;;29.92;13.80;;;13.40;99.90;;;;;;5036354;28;20038;-70
2024/04/01 01:52:49;;;;;;;24.85;13.73;;;13.40;99.90;;;;;;5041827;28;20128;-71
2024/04/01 01:55:35;;;;;;;25.38;14.35;;;13.40;99.90;;;;;;5050660;28;20052;-71
2024/04/01 01:58:21;;;;;;;29.17;15.25;;;13.40;99.90;;;;;;5041149;28;20509;-71
2024/04/01 02:01:07;;;;;;;28.42;15.32;;;13.40;99.90;;;;;;5042385;28;20037;-71
2024/04/01 02:03:53;;;;;;;23.98;15.75;;;13.30;99.90;;;;;;5031421;28;20045;-70
2024/04/01 02:06:39;;;;;;;27.83;14.88;;;13.30;99.90;;;;;;5047546;28;20037;-70
2024/04/01 02:09:25;;;;;;;27.05;14.95;;;13.30;99.90;;;;;;5043442;28;20051;-71
2024/04/01 02:12:11;;;;;;;22.63;14.27;;;13.30;99.90;;;;;;5042773;28;20464;-71
2024/04/01 02:14:57;;;;;;;32.15;14.93;;;13.30;99.90;;;;;;5048663;28;20131;-71
2024/04/01 02:17:43;;;;;;;27.85;13.45;;;13.30;99.90;;;;;;5045934;28;20059;-71
2024/04/01 02:20:33;;;;;;;29.42;13.98;;;13.20;99.90;;;;;;5042655;28;20036;-71
2024/04/01 02:23:19;;;;;;;25.55;14.52;;;13.20;99.90;;;;;;5048146;28;20099;-70
2024/04/01 02:26:05;;;;;;;26.17;13.98;;;13.20;99.90;;;;;;5041385;28;20038;-70
2024/04/01 02:28:51;;;;;;;27.83;15.57;;;13.20;99.90;;;;;;5029946;28;20053;-71
2024/04/01 02:31:38;;;;;;;20.95;13.30;;;13.10;99.90;;;;;;5040689;28;20045;-71
2024/04/01 02:34:23;;;;;;;27.85;14.40;;;13.10;99.90;;;;;;5046444;28;20045;-70
2024/04/01 02:37:09;;;;;;;25.50;14.40;;;13.10;99.90;;;;;;5037637;28;20037;-72
2024/04/01 02:39:55;;;;;;;28.25;14.43;;;13.10;99.90;;;;;;5046684;28;20077;-71
2024/04/01 02:42:41;;;;;;;23.13;14.35;;;13.10;99.90;;;;;;5039868;28;20562;-71
2024/04/01 02:45:29;;;;;;;27.77;14.55;;;13.10;99.90;;;;;;5040065;28;20041;-71
2024/04/01 02:48:15;;;;;;;24.02;14.15;;;13.00;99.90;;;;;;5040729;28;20045;-71
2024/04/01 02:51:02;;;;;;;34.88;15.07;;;13.00;99.90;;;;;;5050119;28;20064;-71
2024/04/01 02:53:48;;;;;;;27.13;14.45;;;13.00;99.90;;;;;;5043986;28;20480;-71
2024/04/01 02:56:34;;;;;;;27.27;14.23;;;13.00;99.90;;;;;;5050010;28;20489;-71
2024/04/01 02:59:20;;;;;;;26.17;13.80;;;13.00;99.90;;;;;;5031069;28;20521;-71
2024/04/01 03:02:08;;;;;;;26.63;14.93;;;13.00;99.90;;;;;;5037814;28;20877;-70
2024/04/01 03:04:53;;;;;;;26.27;15.05;;;12.90;99.90;;;;;;5040273;28;20037;-71
2024/04/01 03:07:40;;;;;;;30.73;15.27;;;12.90;99.90;;;;;;5033486;28;20060;-71
2024/04/01 03:10:26;;;;;;;28.95;13.98;;;12.90;99.90;;;;;;5041434;28;20048;-71
2024/04/01 03:13:12;;;;;;;30.92;13.43;;;12.80;99.90;;;;;;5039456;28;20041;-71
2024/04/01 03:15:58;;;;;;;34.88;14.88;;;12.90;99.90;;;;;;5048180;28;20029;-71
2024/04/01 03:18:44;;;;;;;24.77;14.65;;;12.90;99.90;;;;;;5050329;28;20051;-71
2024/04/01 03:21:30;;;;;;;27.33;14.88;;;12.80;99.90;;;;;;5051882;28;20048;-71
2024/04/01 03:24:16;;;;;;;34.53;14.50;;;12.70;99.90;;;;;;5047552;28;20033;-71
2024/04/01 03:27:02;;;;;;;27.95;14.52;;;12.80;99.90;;;;;;5048681;28;20073;-70
2024/04/01 03:29:48;;;;;;;28.55;14.60;;;12.70;99.90;;;;;;5033968;28;20056;-71
2024/04/01 03:32:34;;;;;;;28.45;14.90;;;12.70;99.90;;;;;;5036481;28;20520;-71
2024/04/01 03:35:20;;;;;;;31.88;14.32;;;12.70;99.90;;;;;;5050531;28;20136;-71
2024/04/01 03:38:07;;;;;;;30.02;15.15;;;12.60;99.90;;;;;;5041659;28;20044;-71
2024/04/01 03:40:53;;;;;;;29.42;15.88;;;12.60;99.90;;;;;;5050772;28;20045;-71
2024/04/01 03:43:39;;;;;;;34.45;15.65;;;12.50;99.90;;;;;;5040579;28;20055;-72
2024/04/01 03:46:25;;;;;;;30.42;15.55;;;12.50;99.90;;;;;;5051334;28;20230;-71
2024/04/01 03:49:11;;;;;;;37.45;15.45;;;12.50;99.90;;;;;;5051464;28;20496;-71
2024/04/01 03:51:56;;;;;;;29.33;15.10;;;12.50;99.90;;;;;;5052721;28;20386;-71
2024/04/01 03:54:42;;;;;;;34.22;13.85;;;12.50;99.90;;;;;;5038449;28;20042;-71
2024/04/01 03:57:29;;;;;;;29.75;16.63;;;12.50;99.90;;;;;;5045745;28;20076;-71
2024/04/01 04:00:16;;;;;;;33.55;16.50;;;12.50;99.90;;;;;;5036482;28;20420;-71
2024/04/01 04:03:01;;;;;;;35.22;14.77;;;12.50;99.90;;;;;;5050996;28;20056;-72
2024/04/01 04:05:48;;;;;;;30.95;13.35;;;12.50;99.90;;;;;;5053448;28;20121;-72
2024/04/01 04:08:34;;;;;;;35.03;16.00;;;12.50;99.90;;;;;;5051101;28;20045;-72
2024/04/01 04:11:21;;;;;;;25.65;13.48;;;12.50;99.90;;;;;;5039420;28;20073;-72
2024/04/01 04:14:08;;;;;;;27.42;14.50;;;12.60;99.90;;;;;;5044071;28;20044;-73
2024/04/01 04:16:54;;;;;;;28.73;15.60;;;12.60;99.90;;;;;;5035046;28;20056;-72
2024/04/01 04:19:40;;;;;;;30.27;14.70;;;12.60;99.90;;;;;;5039632;28;20136;-72
2024/04/01 04:22:26;;;;;;;29.05;14.20;;;12.60;99.90;;;;;;5044776;28;20053;-73
2024/04/01 04:25:12;;;;;;;29.00;15.77;;;12.60;99.90;;;;;;5048977;28;20032;-73
2024/04/01 04:27:58;;;;;;;27.23;14.60;;;12.60;99.90;;;;;;5047030;28;20092;-73
2024/04/01 04:30:44;;;;;;;28.85;15.00;;;12.70;99.90;;;;;;5035705;28;20181;-72
2024/04/01 04:33:30;;;;;;;28.45;14.55;;;12.60;99.90;;;;;;5039605;28;20098;-73
2024/04/01 04:36:16;;;;;;;31.65;14.93;;;12.60;99.90;;;;;;5037089;28;20057;-73
2024/04/01 04:39:19;;;;;;;35.53;16.20;;;12.70;99.90;;;;;;5043758;28;20033;-73
2024/04/01 04:42:05;;;;;;;30.75;14.98;;;12.60;99.90;;;;;;5051017;28;20063;-73
2024/04/01 04:44:52;;;;;;;34.95;16.27;;;12.60;99.90;;;;;;5051671;28;20033;-73
2024/04/01 04:47:38;;;;;;;29.30;14.43;;;12.70;99.90;;;;;;5048951;28;20095;-73
2024/04/01 04:50:24;;;;;;;25.60;13.93;;;12.70;99.90;;;;;;5044671;28;20090;-72
2024/04/01 04:53:10;;;;;;;28.50;14.40;;;12.70;99.90;;;;;;5037558;28;20030;-73
2024/04/01 04:55:57;;;;;;;29.00;12.82;;;12.80;99.90;;;;;;5034940;28;20103;-71
2024/04/01 04:58:43;;;;;;;38.03;15.80;;;12.80;99.90;;;;;;5050184;28;20041;-71
2024/04/01 05:01:29;;;;;;;32.75;16.20;;;12.90;99.90;;;;;;5051276;28;20038;-71
2024/04/01 05:04:16;;;;;;;38.08;15.77;;;12.90;99.90;;;;;;5028722;28;20102;-70
2024/04/01 05:07:03;;;;;;;34.00;15.38;;;12.90;99.90;;;;;;5046174;28;20087;-71
2024/04/01 05:09:48;;;;;;;35.00;15.63;;;12.90;99.90;;;;;;5040569;28;20049;-72
2024/04/01 05:12:34;;;;;;;35.78;15.20;;;12.90;99.90;;;;;;5037207;28;20099;-72
2024/04/01 05:15:20;;;;;;;34.55;14.73;;;12.90;99.90;;;;;;5045999;28;20041;-72
2024/04/01 05:18:06;;;;;;;33.67;14.75;;;12.90;99.90;;;;;;5050521;28;20119;-72
2024/04/01 05:20:52;;;;;;;33.28;15.13;;;12.80;99.90;;;;;;5046595;28;20037;-72
2024/04/01 05:23:38;;;;;;;32.28;15.25;;;12.80;99.90;;;;;;5048132;28;20060;-72
2024/04/01 05:26:24;;;;;;;35.05;14.95;;;12.70;99.90;;;;;;5050358;28;20135;-72
2024/04/01 05:29:11;;;;;;;51.28;16.52;;;12.70;99.90;;;;;;5051494;28;20558;-72
2024/04/01 05:31:57;;;;;;;32.20;15.27;;;12.70;99.90;;;;;;5032622;28;20602;-72
2024/04/01 05:34:45;;;;;;;27.40;15.13;;;12.70;99.90;;;;;;5046303;28;20033;-71
2024/04/01 05:37:32;;;;;;;31.33;14.27;;;12.70;99.90;;;;;;5043855;28;20515;-71
2024/04/01 05:40:18;;;;;;;39.63;16.00;;;12.70;99.90;;;;;;5034029;28;20041;-71
2024/04/01 05:43:05;;;;;;;30.58;15.35;;;12.80;99.90;;;;;;5039915;28;20050;-71
2024/04/01 05:45:51;;;;;;;31.48;14.82;;;12.80;99.90;;;;;;5045106;28;20095;-71
2024/04/01 05:48:37;;;;;;;33.55;15.32;;;12.80;99.90;;;;;;5044677;28;20127;-73
2024/04/01 05:51:23;;;;;;;34.42;14.75;;;12.80;99.90;;;;;;5046077;28;20095;-73
2024/04/01 05:54:09;;;;;;;32.05;15.15;;;12.80;99.90;;;;;;5045472;28;20032;-72
2024/04/01 05:56:56;;;;;;;31.75;14.38;;;12.90;99.90;;;;;;5047784;28;20045;-72
2024/04/01 05:59:44;;;;;;;31.85;15.18;;;12.80;99.90;;;;;;5030154;28;20076;-72
2024/04/01 06:02:30;;;;;;;34.95;14.77;;;12.90;99.90;;;;;;5042453;28;20049;-71
2024/04/01 06:05:16;;;;;;;32.40;14.80;;;12.90;99.90;;;;;;5035553;28;20765;-71
2024/04/01 06:08:02;;;;;;;44.63;16.83;;;12.90;99.90;;;;;;5048412;28;20072;-71
2024/04/01 06:10:48;;;;;;;42.15;16.27;;;13.00;99.90;;;;;;5048332;28;20124;-71
2024/04/01 06:13:34;;;;;;;30.42;14.45;;;13.10;99.90;;;;;;5046394;28;20045;-71
2024/04/01 06:16:20;;;;;;;30.75;14.10;;;13.20;99.90;;;;;;5047649;28;20127;-71
2024/04/01 06:19:06;;;;;;;48.35;16.65;;;13.20;99.90;;;;;;5040724;28;20179;-71
2024/04/01 06:21:53;;;;;;;37.95;15.02;;;13.40;99.90;;;;;;5046002;28;20052;-71
2024/04/01 06:24:39;;;;;;;31.77;12.88;;;13.50;99.90;;;;;;5034969;28;20095;-75
2024/04/01 06:27:25;;;;;;;42.95;14.48;;;13.50;99.90;;;;;;5046929;28;20163;-78
2024/04/01 06:30:11;;;;;;;43.28;13.98;;;13.70;99.90;;;;;;5051210;28;20083;-72
2024/04/01 06:32:57;;;;;;;29.40;13.23;;;13.70;99.90;;;;;;5047968;28;20042;-72
2024/04/01 06:35:43;;;;;;;29.02;12.48;;;13.70;99.90;;;;;;5032370;28;20095;-75
2024/04/01 06:38:32;;;;;;;32.15;14.00;;;13.80;99.90;;;;;;5039428;28;20166;-71
2024/04/01 06:41:18;;;;;;;38.95;12.85;;;13.80;99.90;;;;;;5030033;28;20056;-71
2024/04/01 06:44:04;;;;;;;38.72;13.07;;;13.90;99.90;;;;;;5045201;28;20390;-71
2024/04/01 06:46:50;;;;;;;30.48;12.40;;;13.90;99.90;;;;;;5040092;28;20529;-71
2024/04/01 06:49:37;;;;;;;35.45;14.43;;;14.00;99.90;;;;;;5032113;28;20474;-70
2024/04/01 06:52:24;;;;;;;35.83;14.27;;;14.00;99.90;;;;;;5038609;28;20124;-70
2024/04/01 06:55:09;;;;;;;31.90;12.75;;;14.10;99.90;;;;;;5037221;28;20396;-70
2024/04/01 06:57:55;;;;;;;35.85;13.82;;;14.10;99.90;;;;;;5049759;28;20049;-70
2024/04/01 07:00:42;;;;;;;37.63;12.50;;;14.20;99.90;;;;;;5052189;28;20052;-70
2024/04/01 07:03:27;;;;;;;35.67;14.23;;;14.30;99.90;;;;;;5045501;28;20138;-71
2024/04/01 07:06:13;;;;;;;34.53;13.50;;;14.30;99.90;;;;;;5049199;28;20124;-71
2024/04/01 07:08:59;;;;;;;42.15;13.68;;;14.40;99.90;;;;;;5046418;28;20041;-71
2024/04/01 07:11:45;;;;;;;53.85;13.75;;;14.40;99.90;;;;;;5032667;28;20049;-71
2024/04/01 07:14:31;;;;;;;33.75;14.38;;;14.50;99.90;;;;;;5039066;28;20106;-71
2024/04/01 07:17:17;;;;;;;27.13;12.13;;;14.50;99.90;;;;;;5053706;28;20087;-71
2024/04/01 07:20:04;;;;;;;32.85;12.77;;;14.60;99.90;;;;;;5048380;28;20473;-71
2024/04/01 07:22:50;;;;;;;34.20;13.57;;;14.60;99.90;;;;;;5050785;28;20052;-71
2024/04/01 07:25:36;;;;;;;35.22;13.13;;;14.70;99.90;;;;;;5053473;28;20370;-71
2024/04/01 07:28:22;;;;;;;38.42;14.13;;;14.80;99.90;;;;;;5033692;28;20504;-70
2024/04/01 07:31:08;;;;;;;39.22;13.25;;;15.00;99.90;;;;;;5048351;28;20136;-71
2024/04/01 07:33:54;;;;;;;33.28;13.13;;;15.10;99.90;;;;;;5051633;28;20040;-70
2024/04/01 07:36:40;;;;;;;33.50;12.98;;;15.20;99.90;;;;;;5049277;28;20047;-70
2024/04/01 07:39:28;;;;;;;33.72;11.52;;;15.30;99.90;;;;;;5046255;28;20491;-70
2024/04/01 07:42:14;;;;;;;33.15;12.68;;;15.40;99.90;;;;;;5046804;28;20424;-70
2024/04/01 07:45:00;;;;;;;36.53;11.98;;;15.40;99.90;;;;;;5039461;28;20040;-71
2024/04/01 07:47:46;;;;;;;39.53;12.75;;;15.50;99.90;;;;;;5034682;28;20040;-70
2024/04/01 07:50:32;;;;;;;32.05;11.52;;;15.60;99.90;;;;;;5050273;28;20404;-71
2024/04/01 07:53:17;;;;;;;28.65;11.65;;;15.70;99.90;;;;;;5050651;28;20069;-72
2024/04/01 07:56:04;;;;;;;27.23;10.52;;;15.70;99.90;;;;;;5043993;28;20037;-72
2024/04/01 07:58:49;;;;;;;39.55;12.23;;;15.70;99.90;;;;;;5039330;28;20041;-71
2024/04/01 08:01:36;;;;;;;34.97;10.95;;;15.80;99.80;;;;;;5040582;28;20048;-70
2024/04/01 08:04:27;;;;;;;38.38;12.40;;;15.90;99.70;;;;;;5045578;28;20068;-70
2024/04/01 08:07:14;;;;;;;32.92;11.70;;;15.90;99.50;;;;;;5053010;28;20064;-70
2024/04/01 08:10:00;;;;;;;37.08;13.00;;;16.00;99.40;;;;;;5042004;28;20091;-70
2024/04/01 08:12:46;;;;;;;35.50;11.38;;;16.10;99.30;;;;;;5037357;28;20068;-70
2024/04/01 08:15:32;;;;;;;31.98;10.68;;;16.20;99.20;;;;;;5043842;28;20041;-70
2024/04/01 08:18:18;;;;;;;31.40;9.95;;;16.30;99.00;;;;;;5040031;28;20037;-70
2024/04/01 08:21:04;;;;;;;32.67;11.48;;;16.30;98.70;;;;;;5042444;28;20485;-71
2024/04/01 08:23:50;;;;;;;29.30;10.77;;;16.40;98.50;;;;;;5043142;28;20075;-71
2024/04/01 08:26:36;;;;;;;28.00;10.02;;;16.50;98.20;;;;;;5050945;28;20044;-69
2024/04/01 08:29:22;;;;;;;26.98;9.50;;;16.60;98.20;;;;;;5031346;28;20080;-79
2024/04/01 08:32:08;;;;;;;33.30;9.45;;;16.60;97.90;;;;;;5047670;28;20072;-77
2024/04/01 08:34:53;;;;;;;22.35;8.52;;;16.70;97.60;;;;;;5045393;28;20048;-76
2024/04/01 08:37:40;;;;;;;25.15;8.73;;;16.80;97.40;;;;;;5032050;28;20073;-75
2024/04/01 08:40:31;;;;;;;24.60;9.68;;;16.90;97.30;;;;;;5043275;28;20070;-75
2024/04/01 08:43:46;;;;;;;29.10;8.98;;;16.90;97.20;;;;;;5043817;28;20052;-75
2024/04/01 08:46:33;;;;;;;30.60;9.07;;;17.00;96.90;;;;;;5040457;28;20045;-76
2024/04/01 08:49:34;;;;;;;24.15;8.35;;;17.10;96.80;;;;;;5050681;28;20118;-76
2024/04/01 08:52:25;;;;;;;25.70;7.72;;;17.10;96.40;;;;;;5042825;28;20041;-76
2024/04/01 08:55:11;;;;;;;20.52;7.80;;;17.20;96.20;;;;;;5046352;28;20044;-76
2024/04/01 08:57:58;;;;;;;30.75;9.02;;;17.30;96.00;;;;;;5044226;28;20049;-76
2024/04/01 09:00:44;;;;;;;29.27;7.88;;;17.40;95.80;;;;;;5051518;28;20049;-74
2024/04/01 09:03:30;;;;;;;25.02;7.75;;;17.50;95.80;;;;;;5051981;28;20049;-76
2024/04/01 09:06:16;;;;;;;21.65;7.95;;;17.60;95.50;;;;;;5044706;28;20158;-76
2024/04/01 09:09:03;;;;;;;39.95;8.25;;;17.80;95.30;;;;;;5032289;28;20050;-76
2024/04/01 09:11:51;;;;;;;25.38;7.80;;;17.90;95.10;;;;;;5051095;28;20649;-75
2024/04/01 09:14:37;;;;;;;38.22;9.00;;;17.90;94.80;;;;;;5051392;28;20049;-76
2024/04/01 09:17:26;;;;;;;24.27;6.88;;;18.00;94.60;;;;;;5050270;28;20477;-71
2024/04/01 09:20:12;;;;;;;17.95;7.43;;;18.10;94.50;;;;;;5042186;28;20543;-72
2024/04/01 09:22:59;;;;;;;22.42;6.78;;;18.20;94.40;;;;;;5048621;28;20048;-67
2024/04/01 09:25:45;;;;;;;20.45;7.03;;;18.30;94.10;;;;;;5044960;28;20381;-74
2024/04/01 09:28:31;;;;;;;23.83;7.32;;;18.40;94.00;;;;;;5036902;28;20043;-73
2024/04/01 09:31:18;;;;;;;20.42;6.90;;;18.40;93.70;;;;;;5042940;28;20049;-73
2024/04/01 09:34:04;;;;;;;24.20;7.47;;;18.50;93.50;;;;;;5040116;28;20053;-72
2024/04/01 09:36:50;;;;;;;19.00;6.55;;;18.60;93.30;;;;;;5043710;28;20045;-71
2024/04/01 09:39:39;;;;;;;22.65;7.65;;;18.60;93.10;;;;;;5041250;28;20041;-74
2024/04/01 09:42:26;;;;;;;19.70;6.22;;;18.70;93.20;;;;;;5042295;28;20484;-69
2024/04/01 09:45:12;;;;;;;19.83;6.82;;;18.80;93.20;;;;;;5035793;28;20041;-69
2024/04/01 09:47:58;;;;;;;20.52;5.32;;;18.90;92.70;;;;;;5037292;28;20040;-69
2024/04/01 09:50:47;;;;;;;16.10;6.13;;;18.90;92.50;;;;;;5050326;28;20473;-69
2024/04/01 09:53:33;;;;;;;17.83;6.00;;;19.00;92.10;;;;;;5046366;28;20049;-69
2024/04/01 09:56:28;;;;;;;17.80;4.88;;;19.10;92.00;;;;;;5046141;28;20037;-68
2024/04/01 09:59:44;;;;;;;17.45;6.10;;;19.20;91.50;;;;;;5040469;28;20451;-69
2024/04/01 10:03:12;;;;;;;13.85;4.35;;;19.20;91.40;;;;;;5049767;28;20053;-69
2024/04/01 10:06:06;;;;;;;12.57;5.25;;;19.30;91.40;;;;;;5048895;28;20049;-69
2024/04/01 10:09:44;;;;;;;17.00;5.47;;;19.50;90.90;;;;;;5045803;28;20034;-69
2024/04/01 10:12:51;;;;;;;12.48;3.80;;;19.60;91.00;;;;;;5034579;28;20044;-69
2024/04/01 10:15:54;;;;;;;14.35;4.70;;;19.90;90.70;;;;;;5034206;28;20033;-69
2024/04/01 10:18:59;;;;;;;15.40;4.40;;;20.00;90.10;;;;;;5043120;28;20045;-69
2024/04/01 10:22:24;;;;;;;10.55;3.38;;;20.20;89.90;;;;;;5043789;28;20052;-69
2024/04/01 10:25:51;;;;;;;16.27;3.00;;;20.30;88.70;;;;;;5045427;28;20051;-68
2024/04/01 10:29:15;;;;;;;14.48;4.28;;;20.50;87.90;;;;;;5035735;28;20639;-69
2024/04/01 10:32:27;;;;;;;11.32;3.03;;;20.60;87.10;;;;;;5051337;28;20044;-68
2024/04/01 10:35:25;;;;;;;13.98;3.83;;;20.80;86.20;;;;;;5039169;28;20060;-68
2024/04/01 10:38:37;;;;;;;11.45;2.72;;;21.00;85.60;;;;;;5039505;28;20061;-68
2024/04/01 10:42:00;;;;;;;11.50;3.90;;;21.10;84.30;;;;;;5038488;28;20106;-68
2024/04/01 10:45:14;;;;;;;12.40;3.03;;;21.10;84.00;;;;;;5045257;28;20057;-68
2024/04/01 10:48:17;;;;;;;8.82;3.05;;;21.20;82.40;;;;;;5037541;28;20045;-69
2024/04/01 10:51:25;;;;;;;7.53;3.45;;;21.30;81.60;;;;;;5039658;28;20083;-69
2024/04/01 10:54:17;;;;;;;7.07;2.30;;;21.30;80.70;;;;;;5052262;28;20049;-69
2024/04/01 10:57:29;;;;;;;13.38;3.13;;;21.40;79.50;;;;;;5052910;28;20037;-69
2024/04/01 11:00:27;;;;;;;11.13;3.15;;;21.40;80.10;;;;;;5049612;28;20151;-69
2024/04/01 11:03:26;;;;;;;10.13;2.25;;;21.50;78.60;;;;;;5038577;28;20481;-69
2024/04/01 11:06:36;;;;;;;21.70;4.07;;;21.50;78.40;;;;;;5045632;28;20044;-69
2024/04/01 11:09:59;;;;;;;9.95;3.95;;;21.50;78.30;;;;;;5040559;28;20571;-69
2024/04/01 11:12:45;;;;;;;11.15;3.47;;;21.60;78.30;;;;;;5056088;28;20045;-69
2024/04/01 11:15:32;;;;;;;10.85;3.13;;;21.70;78.20;;;;;;5039168;28;20523;-69
2024/04/01 11:18:21;;;;;;;12.50;3.00;;;21.70;77.80;;;;;;5048985;28;20040;-69
2024/04/01 11:21:27;;;;;;;14.50;3.20;;;21.80;77.30;;;;;;5051388;28;20041;-69
2024/04/01 11:24:28;;;;;;;17.73;3.28;;;21.90;76.90;;;;;;5055404;28;20488;-69
2024/04/01 11:27:57;;;;;;;10.20;2.65;;;22.00;77.10;;;;;;5052906;28;20059;-69
2024/04/01 11:30:45;;;;;;;11.52;2.75;;;22.20;77.90;;;;;;5042164;28;20400;-69
2024/04/01 11:33:38;;;;;;;9.45;3.20;;;22.30;76.80;;;;;;5057128;28;20044;-69
2024/04/01 11:36:30;;;;;;;8.38;2.55;;;22.30;76.40;;;;;;5047597;28;20091;-69
2024/04/01 11:39:18;;;;;;;16.70;3.20;;;22.40;76.00;;;;;;5037363;28;20431;-69
2024/04/01 11:42:06;;;;;;;9.68;3.13;;;22.40;75.90;;;;;;5049161;28;20518;-69
2024/04/01 11:44:54;;;;;;;8.55;2.53;;;22.50;75.50;;;;;;5046851;28;20049;-69
2024/04/01 11:47:43;;;;;;;8.95;2.63;;;22.50;74.80;;;;;;5047833;28;20543;-69
2024/04/01 11:50:31;;;;;;;17.50;3.10;;;22.50;74.30;;;;;;5052359;28;20041;-69
2024/04/01 11:53:17;;;;;;;8.85;3.08;;;22.50;74.10;;;;;;5050572;28;20072;-69
2024/04/01 11:56:04;;;;;;;7.32;2.70;;;22.50;74.00;;;;;;5053042;28;20041;-69
2024/04/01 11:58:50;;;;;;;7.75;2.60;;;22.60;74.00;;;;;;5036232;28;20060;-69
2024/04/01 12:01:38;;;;;;;12.38;2.92;;;22.60;74.10;;;;;;5036769;28;20132;-69
2024/04/01 12:04:25;;;;;;;8.88;2.53;;;22.70;74.30;;;;;;5050883;28;20465;-69
2024/04/01 12:07:12;;;;;;;14.88;3.38;;;22.70;73.80;;;;;;5048211;28;20047;-69
2024/04/01 12:10:06;;;;;;;16.77;3.65;;;22.70;73.70;;;;;;5047895;28;20041;-69
2024/04/01 12:12:53;;;;;;;11.60;3.20;;;22.80;73.60;;;;;;5052908;28;20049;-69
2024/04/01 12:15:42;;;;;;;7.95;3.00;;;22.80;73.60;;;;;;5036067;28;20556;-69
2024/04/01 12:18:28;;;;;;;9.27;3.63;;;22.90;73.20;;;;;;5041788;28;20045;-69
2024/04/01 12:21:18;;;;;;;12.25;2.75;;;22.80;72.90;;;;;;5045191;28;20098;-69
2024/04/01 12:24:05;;;;;;;9.50;2.60;;;22.90;73.10;;;;;;5048210;28;20059;-69
2024/04/01 12:26:51;;;;;;;9.23;3.38;;;22.90;73.40;;;;;;5052642;28;20041;-69
2024/04/01 12:29:38;;;;;;;6.90;2.45;;;22.90;73.50;;;;;;5052366;28;20134;-69
2024/04/01 12:32:36;;;;;;;10.43;3.13;;;22.90;73.30;;;;;;5045684;28;20082;-69
2024/04/01 12:35:25;;;;;;;7.88;2.53;;;23.00;72.90;;;;;;5052199;28;20568;-68
2024/04/01 12:38:13;;;;;;;8.48;2.65;;;23.00;72.70;;;;;;5047770;28;20044;-69
2024/04/01 12:41:00;;;;;;;8.00;2.50;;;23.00;72.10;;;;;;5037749;28;20042;-69
2024/04/01 12:43:47;;;;;;;5.68;2.53;;;23.00;71.90;;;;;;5034971;28;20049;-68
2024/04/01 12:46:42;;;;;;;13.48;2.85;;;23.00;72.20;;;;;;5049215;28;20053;-68
2024/04/01 12:49:28;;;;;;;;;;;22.90;71.80;;;;;;5045048;28;20132;-69
2024/04/01 12:52:22;;;;;;;14.13;2.45;;;22.90;72.90;;;;;;5046462;28;19912;-69
2024/04/01 12:55:18;;;;;;;5.68;2.55;;;22.90;72.60;;;;;;5048111;28;20037;-69
2024/04/01 12:58:18;;;;;;;11.68;3.22;;;22.80;71.90;;;;;;5045806;28;20448;-69
2024/04/01 13:01:31;;;;;;;15.93;3.75;;;22.70;72.00;;;;;;5042982;28;20123;-69
2024/04/01 13:04:51;;;;;;;9.55;2.25;;;22.60;72.10;;;;;;5048679;28;20049;-69
2024/04/01 13:07:59;;;;;;;10.93;2.60;;;22.60;72.30;;;;;;5048217;28;20037;-69
2024/04/01 13:11:22;;;;;;;7.05;3.13;;;22.50;72.30;;;;;;5037613;28;20040;-68
2024/04/01 13:14:27;;;;;;;18.88;3.40;;;22.40;72.40;;;;;;5046446;28;20040;-69
2024/04/01 13:17:14;;;;;;;6.65;2.47;;;22.30;72.70;;;;;;5045641;28;20041;-68
2024/04/01 13:20:06;;;;;;;15.00;2.72;;;22.20;72.90;;;;;;5044425;28;20103;-69
2024/04/01 13:23:06;;;;;;;14.65;2.47;;;22.20;72.90;;;;;;5040210;28;20041;-68
2024/04/01 13:26:20;;;;;;;11.93;2.80;;;22.00;73.00;;;;;;5044541;28;20495;-68
2024/04/01 13:29:10;;;;;;;7.60;2.20;;;22.00;73.20;;;;;;5051683;28;20061;-68
2024/04/01 13:32:22;;;;;;;8.93;3.08;;;22.00;73.50;;;;;;5029352;28;20036;-79
2024/04/01 13:35:18;;;;;;;8.13;2.65;;;22.00;73.70;;;;;;5027144;28;20049;-78
2024/04/01 13:38:26;;;;;;;8.13;2.80;;;21.90;73.80;;;;;;5043800;28;20072;-80
2024/04/01 13:41:30;;;;;;;11.68;3.05;;;21.80;73.80;;;;;;5035289;28;20048;-79
2024/04/01 13:44:58;;;;;;;6.47;2.17;;;21.80;74.20;;;;;;5045816;28;20095;-80
2024/04/01 13:48:13;;;;;;;12.05;2.88;;;21.70;74.30;;;;;;5037902;28;20068;-79
2024/04/01 13:51:23;;;;;;;13.07;3.20;;;21.70;74.50;;;;;;5044559;28;20060;-79
2024/04/01 13:54:26;;;;;;;7.00;2.72;;;21.80;74.80;;;;;;5041642;28;20044;-79
2024/04/01 13:57:40;;;;;;;9.27;3.05;;;21.80;74.70;;;;;;5045403;28;20072;-79
2024/04/01 14:00:34;;;;;;;5.72;2.50;;;21.90;74.90;;;;;;5045522;28;20095;-78
2024/04/01 14:04:00;;;;;;;10.07;3.25;;;22.00;74.80;;;;;;5047825;28;20048;-79
2024/04/01 14:06:55;;;;;;;;;;;22.20;75.10;;;;;;5044710;28;20053;-78
2024/04/01 14:10:02;;;;;;;8.87;2.13;;;22.40;75.80;;;;;;5044825;28;19909;-81
2024/04/01 14:13:31;;;;;;;12.40;2.67;;;22.50;75.80;;;;;;5048719;28;20040;-79
2024/04/01 14:16:35;;;;;;;5.18;2.20;;;22.60;74.80;;;;;;5041151;28;20045;-80
2024/04/01 14:19:27;;;;;;;6.72;2.78;;;22.60;74.40;;;;;;5046790;28;20040;-80
2024/04/01 14:22:13;;;;;;;6.38;2.38;;;22.60;74.00;;;;;;5048842;28;20041;-80
2024/04/01 14:25:03;;;;;;;8.68;2.95;;;22.60;73.70;;;;;;5034848;28;20080;-79
2024/04/01 14:27:49;;;;;;;10.82;2.55;;;22.60;73.00;;;;;;5038734;28;20408;-79
2024/04/01 14:30:36;;;;;;;7.75;2.25;;;22.60;72.10;;;;;;5047817;28;20041;-80
2024/04/01 14:33:22;;;;;;;8.65;2.40;;;22.50;71.70;;;;;;5043999;28;20041;-81